Time;durP1;ratioP1;P1;durP2;ratioP2;P2;SDS_P1;SDS_P2;PMS_P1;PMS_P2;Temp;Humidity;BMP_temperature;BMP_pressure;BME280_temperature;BME280_humidity;BME280_pressure;Samples;Min_cycle;Max_cycle;Signal;HPM_P1;HPM_P2
2022/06/13 00:01:27;;;;;;;8.27;4.13;;;24.50;96.80;;;;;;5073431;28;20067;-82
2022/06/13 00:03:55;;;;;;;7.68;3.88;;;24.50;96.50;;;;;;5083547;28;20117;-84
2022/06/13 00:06:23;;;;;;;11.43;4.82;;;24.50;96.60;;;;;;5060382;28;20044;-82
2022/06/13 00:08:51;;;;;;;8.45;4.63;;;24.50;96.70;;;;;;5087349;28;20082;-80
2022/06/13 00:11:22;;;;;;;5.82;4.35;;;24.50;96.70;;;;;;5050361;28;20130;-79
2022/06/13 00:13:53;;;;;;;9.15;4.60;;;24.50;96.70;;;;;;5069718;28;20137;-80
2022/06/13 00:16:21;;;;;;;7.05;4.53;;;24.50;96.70;;;;;;5073471;28;20078;-79
2022/06/13 00:18:49;;;;;;;12.10;5.28;;;24.50;96.70;;;;;;5062358;28;20082;-80
2022/06/13 00:21:19;;;;;;;9.85;5.15;;;24.50;96.80;;;;;;5073822;28;20508;-80
2022/06/13 00:23:49;;;;;;;9.27;5.57;;;24.50;96.80;;;;;;5060848;28;20051;-80
2022/06/13 00:26:18;;;;;;;12.45;5.47;;;24.40;96.90;;;;;;5070013;28;20139;-79
2022/06/13 00:28:46;;;;;;;11.68;3.85;;;24.50;97.00;;;;;;5085817;28;20059;-79
2022/06/13 00:31:14;;;;;;;7.70;4.22;;;24.50;97.00;;;;;;5056765;28;20047;-80
2022/06/13 00:33:41;;;;;;;8.95;4.07;;;24.50;97.10;;;;;;5060651;28;20266;-80
2022/06/13 00:36:10;;;;;;;10.63;4.13;;;24.40;97.10;;;;;;5056892;28;20051;-80
2022/06/13 00:38:37;;;;;;;6.03;4.10;;;24.40;97.20;;;;;;5059422;28;20064;-80
2022/06/13 00:41:16;;;;;;;8.95;4.63;;;24.40;97.20;;;;;;5057103;28;20076;-79
2022/06/13 00:43:46;;;;;;;8.40;4.47;;;24.40;97.30;;;;;;5082260;28;20032;-79
2022/06/13 00:46:30;;;;;;;7.68;4.22;;;24.30;97.30;;;;;;5056859;28;20048;-79
2022/06/13 00:49:05;;;;;;;9.93;4.72;;;24.40;97.40;;;;;;5072486;28;20636;-79
2022/06/13 00:51:36;;;;;;;10.48;6.00;;;24.30;97.50;;;;;;5056832;28;20147;-79
2022/06/13 00:54:05;;;;;;;9.35;4.68;;;24.40;97.50;;;;;;5072172;28;20047;-79
2022/06/13 00:56:36;;;;;;;7.00;4.38;;;24.30;97.50;;;;;;5072858;28;20040;-80
2022/06/13 00:59:09;;;;;;;11.25;4.43;;;24.30;97.60;;;;;;5071738;28;20416;-79
2022/06/13 01:01:37;;;;;;;8.00;4.13;;;24.30;97.70;;;;;;5072761;28;20044;-80
2022/06/13 01:04:06;;;;;;;10.15;5.55;;;24.30;97.80;;;;;;5075632;28;20110;-79
2022/06/13 01:06:37;;;;;;;8.63;4.65;;;24.30;97.80;;;;;;5075771;28;20048;-79
2022/06/13 01:09:08;;;;;;;20.55;5.15;;;24.30;97.90;;;;;;5110171;27;20067;-80
2022/06/13 01:11:39;;;;;;;12.90;4.47;;;24.30;97.80;;;;;;5094915;27;20043;-79
2022/06/13 01:14:06;;;;;;;10.65;4.53;;;24.30;97.90;;;;;;5075806;28;20592;-80
2022/06/13 01:16:58;;;;;;;7.45;4.05;;;24.30;98.00;;;;;;5076987;28;20043;-79
2022/06/13 01:19:35;;;;;;;9.05;5.20;;;24.30;98.00;;;;;;5110919;28;20044;-79
2022/06/13 01:22:23;;;;;;;11.38;4.65;;;24.30;98.10;;;;;;5093429;28;20074;-79
2022/06/13 01:25:17;;;;;;;7.32;4.65;;;24.30;98.10;;;;;;5060216;28;20036;-79
2022/06/13 01:27:50;;;;;;;12.18;4.95;;;24.30;98.20;;;;;;5065038;28;20052;-79
2022/06/13 01:30:42;;;;;;;10.35;5.35;;;24.30;98.30;;;;;;5112024;28;20577;-79
2022/06/13 01:33:32;;;;;;;15.52;5.32;;;24.30;98.30;;;;;;5076159;28;20078;-79
2022/06/13 01:36:15;;;;;;;8.63;4.85;;;24.30;98.30;;;;;;5060549;28;20051;-79
2022/06/13 01:39:15;;;;;;;9.40;4.70;;;24.30;98.30;;;;;;5093215;28;20055;-79
2022/06/13 01:41:55;;;;;;;7.13;3.75;;;24.20;98.30;;;;;;5077046;28;20569;-79
2022/06/13 01:44:28;;;;;;;6.82;4.07;;;24.30;98.30;;;;;;5077249;28;20479;-79
2022/06/13 01:47:09;;;;;;;6.68;4.53;;;24.20;98.20;;;;;;5077229;28;20053;-79
2022/06/13 01:50:15;;;;;;;11.18;5.25;;;24.20;98.20;;;;;;5076322;28;20039;-78
2022/06/13 01:53:09;;;;;;;11.85;5.07;;;24.30;98.20;;;;;;5082285;28;20083;-79
2022/06/13 01:55:50;;;;;;;11.80;4.40;;;24.20;98.10;;;;;;5093677;28;20104;-78
2022/06/13 01:58:22;;;;;;;9.20;3.92;;;24.30;98.10;;;;;;5093643;28;20070;-79
2022/06/13 02:01:03;;;;;;;9.23;4.25;;;24.20;98.10;;;;;;5076086;28;20048;-78
2022/06/13 02:03:56;;;;;;;12.38;4.18;;;24.20;98.10;;;;;;5060152;28;20142;-79
2022/06/13 02:06:31;;;;;;;10.15;5.03;;;24.20;98.10;;;;;;5093333;28;20047;-79
2022/06/13 02:09:07;;;;;;;10.40;5.00;;;24.10;98.20;;;;;;5093367;28;20071;-79
2022/06/13 02:11:47;;;;;;;8.40;4.38;;;24.20;98.20;;;;;;5092908;28;20047;-79
2022/06/13 02:14:31;;;;;;;8.80;4.97;;;24.10;98.20;;;;;;5075276;28;20059;-80
2022/06/13 02:17:19;;;;;;;9.55;4.30;;;24.10;98.20;;;;;;5093463;28;20818;-78
2022/06/13 02:19:52;;;;;;;9.07;4.78;;;24.10;98.30;;;;;;5076492;28;20043;-79
2022/06/13 02:22:46;;;;;;;7.97;4.82;;;24.00;98.20;;;;;;5092653;28;20063;-79
2022/06/13 02:25:22;;;;;;;9.10;4.40;;;24.00;98.30;;;;;;5092841;28;20141;-79
2022/06/13 02:27:51;;;;;;;;;;;24.00;98.30;;;;;;5093259;28;20414;-78
2022/06/13 02:30:21;;;;;;;7.38;4.40;;;24.00;98.30;;;;;;5075765;28;20010;-79
2022/06/13 02:33:06;;;;;;;9.90;5.22;;;24.10;98.30;;;;;;5075615;28;20488;-79
2022/06/13 02:35:42;;;;;;;10.07;4.20;;;24.00;98.30;;;;;;5076142;28;20059;-79
2022/06/13 02:38:18;;;;;;;6.55;4.05;;;24.00;98.40;;;;;;5059651;28;20055;-78
2022/06/13 02:40:51;;;;;;;8.50;4.28;;;24.00;98.40;;;;;;5092459;28;20043;-79
2022/06/13 02:43:22;;;;;;;8.23;4.13;;;24.00;98.40;;;;;;5110474;28;20047;-79
2022/06/13 02:45:54;;;;;;;4.80;3.55;;;24.00;98.40;;;;;;5075031;28;20050;-78
2022/06/13 02:48:38;;;;;;;7.85;4.40;;;24.00;98.40;;;;;;5075319;28;20100;-79
2022/06/13 02:51:32;;;;;;;8.75;4.47;;;24.00;98.40;;;;;;5075856;28;20501;-79
2022/06/13 02:54:17;;;;;;;7.95;4.35;;;23.90;98.40;;;;;;5072516;28;20047;-79
2022/06/13 03:00:04;;;;;;;7.45;4.28;;;23.80;98.50;;;;;;5075465;28;20073;-79
2022/06/13 03:03:00;;;;;;;6.75;4.10;;;23.80;98.60;;;;;;5074953;28;20783;-79
2022/06/13 03:05:51;;;;;;;8.52;3.92;;;23.80;98.60;;;;;;5075375;28;20439;-79
2022/06/13 03:08:32;;;;;;;12.27;4.57;;;23.70;98.50;;;;;;5092418;28;20494;-78
2022/06/13 03:11:30;;;;;;;6.78;3.97;;;23.70;98.60;;;;;;5075199;28;20046;-78
2022/06/13 03:14:13;;;;;;;11.00;4.20;;;23.70;98.60;;;;;;5091678;28;20094;-79
2022/06/13 03:16:48;;;;;;;7.10;3.70;;;23.70;98.60;;;;;;5058373;28;20066;-79
2022/06/13 03:19:23;;;;;;;6.82;4.10;;;23.70;98.60;;;;;;5059441;28;20043;-79
2022/06/13 03:22:28;;;;;;;8.13;3.78;;;23.70;98.60;;;;;;5058276;28;20426;-79
2022/06/13 03:25:00;;;;;;;6.05;4.35;;;23.70;98.50;;;;;;5106971;28;20482;-79
2022/06/13 03:27:38;;;;;;;6.40;4.18;;;23.70;98.30;;;;;;5075396;28;20517;-78
2022/06/13 03:30:13;;;;;;;8.67;4.87;;;23.70;98.30;;;;;;5075804;28;20641;-79
2022/06/13 03:35:42;;;;;;;8.68;4.03;;;23.60;98.10;;;;;;5085419;28;20055;-79
2022/06/13 03:38:15;;;;;;;5.68;4.70;;;23.60;98.10;;;;;;5075780;28;20091;-79
2022/06/13 03:40:50;;;;;;;8.20;4.13;;;23.70;98.10;;;;;;5091861;28;20031;-79
2022/06/13 03:43:44;;;;;;;5.80;4.20;;;23.70;98.10;;;;;;5058454;28;20048;-79
2022/06/13 03:46:11;;;;;;;6.32;3.92;;;23.70;98.10;;;;;;5074576;28;20558;-79
2022/06/13 03:48:51;;;;;;;7.88;4.80;;;23.70;98.10;;;;;;5074956;28;20489;-78
2022/06/13 03:51:43;;;;;;;8.15;4.15;;;23.80;98.10;;;;;;5091708;28;20039;-79
2022/06/13 03:54:13;;;;;;;8.07;4.80;;;23.80;98.10;;;;;;5059113;28;20129;-79
2022/06/13 03:56:51;;;;;;;8.95;3.92;;;23.80;98.10;;;;;;5093263;28;20043;-78
2022/06/13 03:59:46;;;;;;;10.13;4.38;;;23.90;98.00;;;;;;5078637;28;20105;-78
2022/06/13 04:02:18;;;;;;;7.22;4.28;;;23.90;97.90;;;;;;5067256;28;20097;-79
2022/06/13 04:04:49;;;;;;;5.78;4.57;;;24.10;97.90;;;;;;5092037;28;20127;-78
2022/06/13 04:07:22;;;;;;;6.93;3.92;;;24.10;97.80;;;;;;5078753;28;20051;-78
2022/06/13 04:10:22;;;;;;;6.45;4.28;;;24.20;97.70;;;;;;5095766;28;20040;-78
2022/06/13 04:13:14;;;;;;;9.88;4.78;;;24.30;97.70;;;;;;5052505;28;20400;-78
2022/06/13 04:15:56;;;;;;;8.07;5.13;;;24.40;97.60;;;;;;5078781;28;20224;-79
2022/06/13 04:18:54;;;;;;;7.07;3.95;;;24.50;97.60;;;;;;5078610;28;20044;-77
2022/06/13 04:21:59;;;;;;;9.10;5.15;;;24.60;97.50;;;;;;5078907;28;20036;-78
2022/06/13 04:24:33;;;;;;;8.00;5.20;;;24.70;97.50;;;;;;5078453;28;20060;-78
2022/06/13 04:27:15;;;;;;;6.65;4.60;;;24.80;97.50;;;;;;5078191;28;20494;-78
2022/06/13 04:29:53;;;;;;;9.30;5.13;;;24.90;97.40;;;;;;5061860;28;20466;-79
2022/06/13 04:32:32;;;;;;;9.93;4.40;;;25.10;97.30;;;;;;5112992;28;20148;-79
2022/06/13 04:35:01;;;;;;;9.75;5.25;;;25.10;97.20;;;;;;5078205;28;20516;-79
2022/06/13 04:37:30;;;;;;;6.38;3.95;;;25.20;97.10;;;;;;5078195;28;20055;-79
2022/06/13 04:40:01;;;;;;;8.45;4.53;;;25.30;97.10;;;;;;5095199;28;20051;-79
2022/06/13 04:42:33;;;;;;;7.50;4.65;;;25.40;97.10;;;;;;5094368;28;20067;-80
2022/06/13 04:45:26;;;;;;;11.57;5.70;;;25.40;97.20;;;;;;5078260;28;20121;-79
2022/06/13 04:47:57;;;;;;;7.45;4.32;;;25.60;97.20;;;;;;5078092;28;20039;-79
2022/06/13 04:50:34;;;;;;;9.00;4.43;;;25.60;97.20;;;;;;5113102;28;20051;-79
2022/06/13 04:53:06;;;;;;;6.72;4.50;;;25.70;97.10;;;;;;5093890;28;20500;-80
2022/06/13 04:55:41;;;;;;;8.73;4.38;;;25.90;97.10;;;;;;5077198;28;20078;-79
2022/06/13 04:58:30;;;;;;;7.95;5.22;;;26.00;97.10;;;;;;5076995;28;20188;-79
2022/06/13 05:01:23;;;;;;;10.02;3.97;;;26.00;97.00;;;;;;5061080;28;20043;-78
2022/06/13 05:03:53;;;;;;;8.98;5.13;;;26.10;96.90;;;;;;5049207;28;20508;-80
2022/06/13 05:06:44;;;;;;;8.85;5.07;;;26.30;96.80;;;;;;5093858;28;20443;-79
2022/06/13 05:09:11;;;;;;;5.85;4.25;;;26.40;96.70;;;;;;5077136;28;20047;-79
2022/06/13 05:11:42;;;;;;;10.90;5.03;;;26.60;96.50;;;;;;5060794;28;20682;-79
2022/06/13 05:14:25;;;;;;;7.38;4.70;;;26.70;96.40;;;;;;5077267;28;20488;-79
2022/06/13 05:16:56;;;;;;;7.47;4.47;;;26.80;96.20;;;;;;5077477;28;20218;-79
2022/06/13 05:19:42;;;;;;;8.75;4.40;;;26.90;96.10;;;;;;5077837;28;20075;-80
2022/06/13 05:22:28;;;;;;;;;;;27.10;96.00;;;;;;5061263;28;20048;-79
2022/06/13 05:25:33;;;;;;;6.17;4.60;;;27.10;95.90;;;;;;5077578;28;19923;-79
2022/06/13 05:28:01;;;;;;;7.70;4.40;;;27.30;95.70;;;;;;5076877;28;20087;-79
2022/06/13 05:30:29;;;;;;;7.75;4.85;;;27.40;95.40;;;;;;5076801;28;20473;-79
2022/06/13 05:32:59;;;;;;;9.40;3.92;;;27.50;95.30;;;;;;5093190;28;20152;-79
2022/06/13 05:35:32;;;;;;;9.90;4.53;;;27.60;95.10;;;;;;5076884;28;20370;-79
2022/06/13 05:38:02;;;;;;;8.57;4.70;;;27.70;94.80;;;;;;5076976;28;20070;-79
2022/06/13 05:40:29;;;;;;;10.30;4.35;;;27.70;94.70;;;;;;5093282;28;20043;-79
2022/06/13 05:42:57;;;;;;;9.05;4.45;;;27.80;94.50;;;;;;5111713;28;20044;-79
2022/06/13 05:45:25;;;;;;;11.23;4.85;;;27.80;94.40;;;;;;5077100;28;20512;-79
2022/06/13 05:47:53;;;;;;;9.43;4.90;;;27.90;94.40;;;;;;5093080;28;20097;-78
2022/06/13 05:50:24;;;;;;;14.27;4.28;;;27.90;94.40;;;;;;5076429;28;20031;-78
2022/06/13 05:52:52;;;;;;;9.95;5.15;;;27.90;94.30;;;;;;5060040;28;20059;-78
2022/06/13 05:55:20;;;;;;;11.85;4.10;;;28.10;94.10;;;;;;5093568;28;20047;-79
2022/06/13 05:57:58;;;;;;;5.95;3.80;;;28.20;94.10;;;;;;5093120;28;20528;-79
2022/06/13 06:00:30;;;;;;;5.47;3.97;;;28.20;94.00;;;;;;5075857;28;20058;-78
2022/06/13 06:02:57;;;;;;;7.78;4.97;;;28.30;94.10;;;;;;5059811;28;20039;-79
2022/06/13 06:05:25;;;;;;;7.22;4.78;;;28.40;94.00;;;;;;5093563;28;20079;-79
2022/06/13 06:07:53;;;;;;;6.72;4.57;;;28.40;94.00;;;;;;5076693;28;20043;-79
2022/06/13 06:10:27;;;;;;;8.82;4.35;;;28.60;94.00;;;;;;5076724;28;20382;-79
2022/06/13 06:12:54;;;;;;;9.18;4.82;;;28.60;93.90;;;;;;5076089;28;20166;-80
2022/06/13 06:15:22;;;;;;;6.78;4.40;;;28.70;93.70;;;;;;5092787;28;20573;-79
2022/06/13 06:17:50;;;;;;;7.65;4.15;;;28.60;93.60;;;;;;5076301;28;20489;-79
2022/06/13 06:20:21;;;;;;;9.18;4.68;;;28.50;93.60;;;;;;5092704;28;20039;-79
2022/06/13 06:22:49;;;;;;;7.07;4.13;;;28.50;93.70;;;;;;5076253;28;20610;-79
2022/06/13 06:25:17;;;;;;;7.63;3.63;;;28.60;93.70;;;;;;5056589;28;20178;-80
2022/06/13 06:27:45;;;;;;;7.53;4.20;;;28.70;93.60;;;;;;5064256;28;20439;-80
2022/06/13 06:30:15;;;;;;;7.90;4.45;;;28.90;93.40;;;;;;5059824;28;20048;-79
2022/06/13 06:32:43;;;;;;;17.35;4.85;;;28.90;93.50;;;;;;5076269;28;20547;-80
2022/06/13 06:35:11;;;;;;;7.32;4.45;;;28.90;93.40;;;;;;5075977;28;20039;-80
2022/06/13 06:37:40;;;;;;;8.30;4.32;;;29.00;93.40;;;;;;5076035;28;20074;-80
2022/06/13 06:40:10;;;;;;;6.53;4.22;;;29.00;93.50;;;;;;5059189;28;20120;-80
2022/06/13 06:42:37;;;;;;;7.03;4.70;;;29.10;93.70;;;;;;5092676;28;20520;-79
2022/06/13 06:45:20;;;;;;;7.40;4.72;;;29.10;93.30;;;;;;5094994;28;20133;-79
2022/06/13 06:47:48;;;;;;;7.43;4.30;;;29.00;93.30;;;;;;5075081;28;20214;-80
2022/06/13 06:50:22;;;;;;;10.45;3.70;;;29.00;93.10;;;;;;5091777;28;20053;-79
2022/06/13 06:52:50;;;;;;;8.23;3.78;;;29.10;93.20;;;;;;5075230;28;20102;-79
2022/06/13 07:01:07;;;;;;;5.68;3.50;;;29.10;93.30;;;;;;5092476;28;20081;-80
2022/06/13 07:03:34;;;;;;;8.25;4.18;;;29.20;93.10;;;;;;5075558;28;20058;-80
2022/06/13 07:06:02;;;;;;;9.95;5.60;;;29.20;92.90;;;;;;5076254;28;20047;-80
2022/06/13 07:08:30;;;;;;;8.80;4.85;;;29.30;92.70;;;;;;5092382;28;20125;-80
2022/06/13 07:13:49;;;;;;;6.85;4.03;;;29.50;92.40;;;;;;5075828;28;20044;-80
2022/06/13 07:16:17;;;;;;;7.35;4.25;;;29.60;92.60;;;;;;5110815;28;20047;-80
2022/06/13 07:18:45;;;;;;;7.30;4.60;;;29.60;91.90;;;;;;5092180;28;20050;-79
2022/06/13 07:21:14;;;;;;;7.35;4.28;;;29.60;92.10;;;;;;5092417;28;20044;-80
2022/06/13 07:23:42;;;;;;;6.47;4.43;;;29.50;92.10;;;;;;5092007;28;20039;-80
2022/06/13 07:26:10;;;;;;;8.80;4.40;;;29.70;92.40;;;;;;5075089;28;20052;-78
2022/06/13 07:28:38;;;;;;;8.00;3.80;;;29.70;92.30;;;;;;5092433;28;20398;-79
2022/06/13 07:31:08;;;;;;;6.40;3.72;;;29.70;92.10;;;;;;5092908;28;20043;-79
2022/06/13 07:33:36;;;;;;;5.68;4.15;;;29.70;91.50;;;;;;5079143;28;20054;-80
2022/06/13 07:36:04;;;;;;;5.85;4.28;;;29.70;91.40;;;;;;5096465;28;20071;-80
2022/06/13 07:38:31;;;;;;;6.57;4.55;;;29.80;91.50;;;;;;5114146;28;20039;-79
2022/06/13 07:41:01;;;;;;;5.65;4.20;;;29.80;91.80;;;;;;5079600;28;20059;-80
2022/06/13 07:43:34;;;;;;;7.15;4.22;;;29.90;91.60;;;;;;5078950;28;20054;-79
2022/06/13 07:46:05;;;;;;;6.65;4.28;;;30.00;91.60;;;;;;5096270;28;20040;-80
2022/06/13 07:48:34;;;;;;;6.30;3.65;;;30.10;91.50;;;;;;5096007;28;20109;-80
2022/06/13 07:51:02;;;;;;;8.20;4.32;;;30.10;91.40;;;;;;5095511;28;20048;-79
2022/06/13 07:53:29;;;;;;;6.85;4.70;;;30.10;91.50;;;;;;5114140;28;20039;-79
2022/06/13 07:56:17;;;;;;;7.05;4.53;;;30.10;91.40;;;;;;5098781;28;20047;-79
2022/06/13 07:58:47;;;;;;;5.50;3.90;;;30.20;91.60;;;;;;5095838;28;20044;-79
2022/06/13 08:01:16;;;;;;;6.70;3.72;;;30.30;91.60;;;;;;5078922;28;20143;-80
2022/06/13 08:03:44;;;;;;;5.25;3.72;;;30.40;91.20;;;;;;5079094;28;20083;-80
2022/06/13 08:06:12;;;;;;;7.15;3.53;;;30.30;91.20;;;;;;5078741;28;20534;-80
2022/06/13 08:08:40;;;;;;;8.43;4.20;;;30.50;91.30;;;;;;5095355;28;20062;-80
2022/06/13 08:11:11;;;;;;;8.40;3.92;;;30.50;91.30;;;;;;5078596;28;20142;-80
2022/06/13 08:13:39;;;;;;;7.38;4.18;;;30.60;91.20;;;;;;5094811;28;20497;-79
2022/06/13 08:16:09;;;;;;;7.47;3.97;;;30.50;91.10;;;;;;5094946;28;20397;-80
2022/06/13 08:18:37;;;;;;;8.05;4.53;;;30.50;91.00;;;;;;5078333;28;20047;-80
2022/06/13 08:21:05;;;;;;;8.73;3.47;;;30.40;90.60;;;;;;5094810;28;20059;-78
2022/06/13 08:23:33;;;;;;;6.72;4.05;;;30.50;90.80;;;;;;5078507;28;20118;-79
2022/06/13 08:26:01;;;;;;;5.35;3.70;;;30.50;90.60;;;;;;5095076;28;20074;-79
2022/06/13 08:28:29;;;;;;;6.78;3.80;;;30.50;90.30;;;;;;5085650;28;20430;-79
2022/06/13 08:30:59;;;;;;;6.72;3.20;;;30.50;90.20;;;;;;5082037;28;20047;-80
2022/06/13 08:33:27;;;;;;;9.55;4.85;;;30.50;90.50;;;;;;5089018;28;20040;-80
2022/06/13 08:35:55;;;;;;;6.43;4.05;;;30.60;90.90;;;;;;5066486;28;20155;-79
2022/06/13 08:38:23;;;;;;;6.13;3.60;;;30.60;90.40;;;;;;5085853;28;20498;-80
2022/06/13 08:41:05;;;;;;;4.78;4.15;;;30.60;90.00;;;;;;5094698;28;20501;-80
2022/06/13 08:44:03;;;;;;;5.65;3.70;;;30.70;89.70;;;;;;5076393;28;20051;-80
2022/06/13 08:46:31;;;;;;;5.72;3.80;;;30.80;88.90;;;;;;5081346;28;20404;-80
2022/06/13 08:49:26;;;;;;;5.45;4.35;;;30.70;89.90;;;;;;5075958;28;20059;-79
2022/06/13 08:52:05;;;;;;;12.75;4.88;;;30.40;89.20;;;;;;5070948;28;20079;-78
2022/06/13 08:54:34;;;;;;;4.35;3.20;;;30.50;90.20;;;;;;5061147;28;20044;-77
2022/06/13 08:57:08;;;;;;;6.35;3.70;;;30.40;89.90;;;;;;5091723;28;20044;-78
2022/06/13 08:59:58;;;;;;;6.60;4.10;;;30.40;90.60;;;;;;5094656;28;20070;-76
2022/06/13 09:02:31;;;;;;;7.00;4.15;;;30.60;90.60;;;;;;5084235;28;20047;-77
2022/06/13 09:05:08;;;;;;;7.47;3.97;;;30.60;90.90;;;;;;5092663;28;20514;-76
2022/06/13 09:07:58;;;;;;;7.30;4.00;;;30.80;91.00;;;;;;5077795;28;20051;-76
2022/06/13 09:10:39;;;;;;;7.13;3.65;;;30.80;90.60;;;;;;5077393;28;20108;-76
2022/06/13 09:13:27;;;;;;;12.82;4.28;;;30.80;90.70;;;;;;5077591;28;20055;-76
2022/06/13 09:16:11;;;;;;;6.55;3.67;;;30.80;91.20;;;;;;5094301;28;20054;-76
2022/06/13 09:19:03;;;;;;;6.15;3.28;;;30.70;91.10;;;;;;5111706;28;20040;-77
2022/06/13 09:21:47;;;;;;;5.05;3.78;;;30.70;90.90;;;;;;5077648;28;20142;-77
2022/06/13 09:24:32;;;;;;;6.95;3.97;;;30.70;90.80;;;;;;5077544;28;20124;-77
2022/06/13 09:27:18;;;;;;;6.22;3.22;;;30.60;90.90;;;;;;5077478;28;20054;-77
2022/06/13 09:29:55;;;;;;;9.35;5.07;;;30.60;91.10;;;;;;5093899;28;20050;-75
2022/06/13 09:32:32;;;;;;;5.97;3.97;;;30.60;91.00;;;;;;5094227;28;20108;-77
2022/06/13 09:35:21;;;;;;;6.18;3.88;;;30.60;91.00;;;;;;5077183;28;20051;-76
2022/06/13 09:38:17;;;;;;;7.10;3.63;;;30.60;90.70;;;;;;5093465;28;20072;-78
2022/06/13 09:40:47;;;;;;;6.78;3.92;;;30.70;90.90;;;;;;5090563;28;20047;-77
2022/06/13 09:43:15;;;;;;;7.72;3.67;;;30.80;90.70;;;;;;5060487;28;20059;-78
2022/06/13 09:46:07;;;;;;;7.82;3.78;;;30.70;90.20;;;;;;5093416;28;20520;-78
2022/06/13 09:49:11;;;;;;;6.03;3.90;;;30.60;90.30;;;;;;5076476;28;20086;-80
2022/06/13 09:52:03;;;;;;;7.00;3.55;;;30.70;90.80;;;;;;5076946;28;20168;-77
2022/06/13 09:54:54;;;;;;;5.53;3.92;;;30.60;90.30;;;;;;5083550;28;20048;-78
2022/06/13 09:57:37;;;;;;;4.65;3.35;;;30.60;90.80;;;;;;5066285;28;20792;-77
2022/06/13 10:00:14;;;;;;;5.60;3.45;;;30.70;90.90;;;;;;5075313;28;20048;-77
2022/06/13 10:02:55;;;;;;;6.18;3.70;;;30.70;90.70;;;;;;5093330;28;20504;-76
2022/06/13 10:05:28;;;;;;;7.90;3.33;;;30.60;90.70;;;;;;5060121;28;20051;-76
2022/06/13 10:08:05;;;;;;;7.00;3.97;;;30.60;90.90;;;;;;5110943;28;20101;-77
2022/06/13 10:10:41;;;;;;;6.28;3.13;;;30.40;90.70;;;;;;5093041;28;20045;-76
2022/06/13 10:13:29;;;;;;;7.32;3.80;;;30.50;90.60;;;;;;5093423;28;20130;-77
2022/06/13 10:16:32;;;;;;;6.18;3.83;;;30.50;91.20;;;;;;5076109;28;20047;-76
2022/06/13 10:19:15;;;;;;;8.32;4.20;;;30.50;90.30;;;;;;5076052;28;20065;-77
2022/06/13 10:21:48;;;;;;;7.45;3.60;;;30.40;91.50;;;;;;5111135;28;20460;-77
2022/06/13 10:24:28;;;;;;;6.60;3.55;;;30.30;91.10;;;;;;5093264;28;20374;-77
2022/06/13 10:27:40;;;;;;;7.43;3.47;;;30.30;91.10;;;;;;5076132;28;20063;-76
2022/06/13 10:30:10;;;;;;;9.70;3.95;;;30.30;90.80;;;;;;5075869;28;20043;-77
2022/06/13 10:33:15;;;;;;;6.63;3.53;;;30.30;91.00;;;;;;5075298;28;20051;-78
2022/06/13 10:36:00;;;;;;;4.38;3.58;;;30.30;91.00;;;;;;5069791;28;20561;-79
2022/06/13 10:38:31;;;;;;;4.87;3.70;;;30.30;90.80;;;;;;5059408;28;20500;-79
2022/06/13 10:40:59;;;;;;;6.82;4.00;;;30.20;90.80;;;;;;5075604;28;20288;-77
2022/06/13 10:43:29;;;;;;;8.23;4.00;;;30.20;90.50;;;;;;5072268;28;20097;-78
2022/06/13 10:45:57;;;;;;;7.75;4.13;;;30.20;90.80;;;;;;5090592;28;20063;-78
2022/06/13 10:48:37;;;;;;;7.30;3.47;;;30.20;91.40;;;;;;5111021;28;20047;-78
2022/06/13 10:51:06;;;;;;;6.85;3.58;;;30.30;91.10;;;;;;5092904;28;20047;-77
2022/06/13 10:53:54;;;;;;;7.22;3.70;;;30.30;90.90;;;;;;5076265;28;20055;-77
2022/06/13 10:56:33;;;;;;;5.90;3.87;;;30.20;90.90;;;;;;5075881;28;20055;-78
2022/06/13 10:59:00;;;;;;;5.40;3.45;;;30.30;90.80;;;;;;5075975;28;20281;-77
2022/06/13 11:01:31;;;;;;;6.70;3.90;;;30.30;90.80;;;;;;5092538;28;20043;-77
2022/06/13 11:04:16;;;;;;;5.97;4.18;;;30.10;91.20;;;;;;5076125;28;20050;-78
2022/06/13 11:06:48;;;;;;;8.52;4.45;;;30.20;91.00;;;;;;5060261;28;20140;-78
2022/06/13 11:09:37;;;;;;;6.55;3.47;;;30.20;90.80;;;;;;5079501;28;20144;-79
2022/06/13 11:12:16;;;;;;;5.18;3.45;;;30.20;90.60;;;;;;5079386;28;20039;-78
2022/06/13 11:23:52;;;;;;;6.65;3.80;;;30.20;90.10;;;;;;5078705;28;20370;-79
2022/06/13 11:29:14;;;;;;;6.03;3.72;;;30.20;90.10;;;;;;5095520;28;20561;-79
2022/06/13 11:31:55;;;;;;;4.70;2.88;;;30.30;90.10;;;;;;5095612;28;20492;-78
2022/06/13 11:34:30;;;;;;;9.95;3.88;;;30.20;89.50;;;;;;5095585;28;20043;-79
2022/06/13 11:37:01;;;;;;;6.93;3.65;;;30.10;88.90;;;;;;5095434;28;20051;-78
2022/06/13 11:39:35;;;;;;;6.32;3.60;;;30.10;89.80;;;;;;5095227;28;20055;-78
2022/06/13 11:42:12;;;;;;;6.00;4.05;;;30.10;90.00;;;;;;5078785;28;20050;-77
2022/06/13 11:44:48;;;;;;;6.00;4.03;;;30.10;89.20;;;;;;5078180;28;20390;-79
2022/06/13 11:47:18;;;;;;;6.43;4.03;;;29.90;89.20;;;;;;5113510;28;20047;-78
2022/06/13 11:49:48;;;;;;;4.95;3.30;;;29.90;88.80;;;;;;5113336;28;20047;-78
2022/06/13 11:55:36;;;;;;;5.63;3.97;;;29.90;89.60;;;;;;5070300;28;20055;-77
2022/06/13 11:58:04;;;;;;;6.80;4.22;;;29.90;89.70;;;;;;5113232;28;20039;-77
2022/06/13 12:00:54;;;;;;;5.20;3.42;;;29.80;89.70;;;;;;5094320;28;20504;-78
2022/06/13 12:03:27;;;;;;;5.10;3.95;;;29.70;89.10;;;;;;5112903;28;20039;-77
2022/06/13 12:06:06;;;;;;;6.68;3.70;;;29.70;89.00;;;;;;5077943;28;20042;-77
2022/06/13 12:08:36;;;;;;;4.63;3.67;;;29.70;90.00;;;;;;5094498;28;20052;-79
2022/06/13 12:11:14;;;;;;;5.65;4.20;;;29.70;89.10;;;;;;5078722;28;20096;-78
2022/06/13 12:13:45;;;;;;;7.68;3.90;;;29.60;88.90;;;;;;5077746;28;20083;-79
2022/06/13 12:16:39;;;;;;;7.10;3.80;;;29.60;89.30;;;;;;5078456;28;20047;-78
2022/06/13 12:19:30;;;;;;;6.82;4.32;;;29.60;89.90;;;;;;5078022;28;20088;-79
2022/06/13 12:22:14;;;;;;;3.97;3.35;;;29.70;88.70;;;;;;5095197;28;20048;-78
2022/06/13 12:24:45;;;;;;;5.18;3.17;;;29.50;88.20;;;;;;5094943;28;20528;-79
2022/06/13 12:27:44;;;;;;;6.20;3.38;;;29.40;88.70;;;;;;5061071;28;20493;-78
2022/06/13 12:30:14;;;;;;;4.32;3.15;;;29.50;88.70;;;;;;5078294;28;20814;-79
2022/06/13 12:32:57;;;;;;;7.20;4.35;;;29.60;88.50;;;;;;5094518;28;20048;-78
2022/06/13 12:35:47;;;;;;;8.57;4.10;;;29.60;88.10;;;;;;5095000;28;20052;-78
2022/06/13 12:38:36;;;;;;;10.68;4.30;;;29.60;88.50;;;;;;5078402;28;20039;-78
2022/06/13 12:41:28;;;;;;;4.70;3.28;;;29.70;88.20;;;;;;5078322;28;20385;-77
2022/06/13 12:44:29;;;;;;;6.30;3.90;;;29.60;88.00;;;;;;5077943;28;20498;-79
2022/06/13 12:47:15;;;;;;;5.15;3.80;;;29.70;87.50;;;;;;5095351;28;20051;-78
2022/06/13 12:49:50;;;;;;;;;;;29.70;87.60;;;;;;5078554;28;20047;-78
2022/06/13 12:52:20;;;;;;;5.07;3.28;;;29.70;85.30;;;;;;5078144;28;20418;-78
2022/06/13 12:54:53;;;;;;;4.68;3.50;;;29.70;86.80;;;;;;5094800;28;20043;-78
2022/06/13 12:57:46;;;;;;;5.53;3.67;;;29.80;85.90;;;;;;5061804;28;20051;-77
2022/06/13 13:00:30;;;;;;;8.00;3.90;;;29.80;86.60;;;;;;5057557;28;20044;-78
2022/06/13 13:03:04;;;;;;;5.82;3.70;;;29.90;86.60;;;;;;5075391;28;20193;-78
2022/06/13 13:05:43;;;;;;;7.13;3.95;;;29.90;86.20;;;;;;5094483;28;20040;-78
2022/06/13 13:08:41;;;;;;;6.30;2.78;;;29.90;85.40;;;;;;5061277;28;20055;-78
2022/06/13 13:11:18;;;;;;;4.30;3.85;;;29.70;85.40;;;;;;5094619;28;20511;-78
2022/06/13 13:14:11;;;;;;;6.32;3.42;;;29.90;85.60;;;;;;5094055;28;20405;-78
2022/06/13 13:16:57;;;;;;;6.38;3.33;;;29.90;85.60;;;;;;5060698;28;20055;-78
2022/06/13 13:19:31;;;;;;;5.35;3.00;;;29.90;85.20;;;;;;5077561;28;20083;-78
2022/06/13 13:22:06;;;;;;;6.10;4.05;;;29.90;84.60;;;;;;5077342;28;20539;-78
2022/06/13 13:25:15;;;;;;;4.93;3.90;;;29.90;83.70;;;;;;5077343;28;20058;-78
2022/06/13 13:28:02;;;;;;;5.60;2.97;;;29.90;85.00;;;;;;5067849;28;20040;-79
2022/06/13 13:30:55;;;;;;;4.57;3.72;;;29.80;84.70;;;;;;5076903;28;20055;-79
2022/06/13 13:33:56;;;;;;;6.88;3.88;;;29.90;85.00;;;;;;5077216;28;20063;-77
2022/06/13 13:36:38;;;;;;;4.47;3.60;;;29.90;84.60;;;;;;5111865;28;20039;-79
2022/06/13 13:39:23;;;;;;;6.88;3.10;;;29.90;83.10;;;;;;5112099;28;20062;-79
2022/06/13 13:42:00;;;;;;;5.15;3.25;;;29.90;83.00;;;;;;5111701;28;20040;-79
2022/06/13 13:44:53;;;;;;;4.97;3.22;;;29.80;83.10;;;;;;5076168;28;20047;-79
2022/06/13 13:47:22;;;;;;;5.70;3.97;;;29.80;82.50;;;;;;5077150;28;20531;-79
2022/06/13 13:50:00;;;;;;;7.97;3.35;;;29.80;83.10;;;;;;5093871;28;20040;-79
2022/06/13 13:52:39;;;;;;;6.22;3.65;;;29.70;82.60;;;;;;5093698;28;20097;-79
2022/06/13 13:55:17;;;;;;;4.28;3.25;;;29.70;83.00;;;;;;5077209;28;20047;-79
2022/06/13 13:57:58;;;;;;;4.15;2.90;;;29.60;82.20;;;;;;5111824;28;20035;-79
2022/06/13 14:00:38;;;;;;;6.65;3.58;;;29.50;82.60;;;;;;5076846;28;20397;-80
2022/06/13 14:03:34;;;;;;;6.25;3.35;;;29.60;82.10;;;;;;5076622;28;20044;-79
2022/06/13 14:06:17;;;;;;;6.32;3.63;;;29.60;83.30;;;;;;5093498;28;20067;-79
2022/06/13 14:08:47;;;;;;;6.65;3.92;;;29.70;82.20;;;;;;5073498;28;20052;-78